createdAt,value
2019-03-25T00:01:25.706Z,14.90
2019-03-25T00:03:55.717Z,14.90
2019-03-25T00:06:25.678Z,14.90
2019-03-25T00:09:04.898Z,14.90
2019-03-25T00:11:27.024Z,14.90
2019-03-25T00:13:56.777Z,14.90
2019-03-25T00:16:26.680Z,14.90
2019-03-25T00:18:56.715Z,14.80
2019-03-25T00:21:30.878Z,14.80
2019-03-25T00:24:00.762Z,14.80
2019-03-25T00:26:30.581Z,14.80
2019-03-25T00:29:00.694Z,14.80
2019-03-25T00:31:30.369Z,14.80
2019-03-25T00:34:00.179Z,14.80
2019-03-25T00:36:30.137Z,14.80
2019-03-25T00:38:59.907Z,14.80
2019-03-25T00:41:29.816Z,14.80
2019-03-25T00:43:59.483Z,14.80
2019-03-25T00:46:29.364Z,14.80
2019-03-25T00:48:59.198Z,14.70
2019-03-25T00:51:29.232Z,14.70
2019-03-25T00:53:59.131Z,14.70
2019-03-25T00:56:29.038Z,14.70
2019-03-25T00:58:58.931Z,14.70
2019-03-25T01:01:28.894Z,14.70
2019-03-25T01:03:58.678Z,14.70
2019-03-25T01:06:30.932Z,14.70
2019-03-25T01:09:00.800Z,14.70
2019-03-25T01:11:30.844Z,14.70
2019-03-25T01:14:00.701Z,14.70
2019-03-25T01:16:30.676Z,14.60
2019-03-25T01:19:00.491Z,14.70
2019-03-25T01:21:30.391Z,14.60
2019-03-25T01:24:00.346Z,14.60
2019-03-25T01:26:30.294Z,14.60
2019-03-25T01:29:00.148Z,14.60
2019-03-25T01:31:30.156Z,14.60
2019-03-25T01:33:59.984Z,14.60
2019-03-25T01:36:29.969Z,14.60
2019-03-25T01:38:59.909Z,14.60
2019-03-25T01:41:29.773Z,14.60
2019-03-25T01:43:59.830Z,14.50
2019-03-25T01:46:31.853Z,14.50
2019-03-25T01:49:01.761Z,14.50
2019-03-25T01:51:31.662Z,14.50
2019-03-25T01:54:01.541Z,14.50
2019-03-25T01:56:31.537Z,14.50
2019-03-25T01:59:01.507Z,14.50
2019-03-25T02:01:31.960Z,14.50
2019-03-25T02:04:01.800Z,14.50
2019-03-25T02:06:43.074Z,14.50
2019-03-25T02:09:12.816Z,14.50
2019-03-25T02:11:42.660Z,14.50
2019-03-25T02:14:12.394Z,14.50
2019-03-25T02:16:42.365Z,14.50
2019-03-25T02:19:12.206Z,14.50
2019-03-25T02:21:42.041Z,14.40
2019-03-25T02:24:23.868Z,14.40
2019-03-25T02:26:55.049Z,14.40
2019-03-25T02:29:25.016Z,14.40
2019-03-25T02:31:55.119Z,14.40
2019-03-25T02:34:24.929Z,14.40
2019-03-25T02:36:54.935Z,14.40
2019-03-25T02:39:24.745Z,14.40
2019-03-25T02:42:01.171Z,14.40
2019-03-25T02:44:30.930Z,14.40
2019-03-25T02:47:00.954Z,14.40
2019-03-25T02:49:30.880Z,14.30
2019-03-25T02:52:00.664Z,14.40
2019-03-25T02:54:30.647Z,14.30
2019-03-25T02:57:00.710Z,14.30
2019-03-25T02:59:30.704Z,14.30
2019-03-25T03:02:00.553Z,14.30
2019-03-25T03:04:30.928Z,14.30
2019-03-25T03:07:00.856Z,14.30
2019-03-25T03:09:30.732Z,14.30
2019-03-25T03:12:00.739Z,14.30
2019-03-25T03:14:30.532Z,14.30
2019-03-25T03:17:00.585Z,14.30
2019-03-25T03:19:30.442Z,14.20
2019-03-25T03:22:00.270Z,14.20
2019-03-25T03:24:31.068Z,14.20
2019-03-25T03:27:02.327Z,14.20
2019-03-25T03:29:32.326Z,14.20
2019-03-25T03:32:02.352Z,14.20
2019-03-25T03:34:32.390Z,14.20
2019-03-25T03:37:04.782Z,14.20
2019-03-25T03:39:36.089Z,14.20
2019-03-25T03:42:05.959Z,14.20
2019-03-25T03:44:35.915Z,14.10
2019-03-25T03:47:07.670Z,14.10
2019-03-25T03:49:37.396Z,14.10
2019-03-25T03:52:07.764Z,14.10
2019-03-25T03:54:37.667Z,14.10
2019-03-25T03:57:07.504Z,14.10
2019-03-25T03:59:37.410Z,14.10
2019-03-25T04:02:10.147Z,14.10
2019-03-25T04:04:40.179Z,14.10
2019-03-25T04:07:10.113Z,14.00
2019-03-25T04:09:40.078Z,14.00
2019-03-25T04:12:25.153Z,14.00
2019-03-25T04:14:55.048Z,14.00
2019-03-25T04:17:24.820Z,14.00
2019-03-25T04:19:54.661Z,14.00
2019-03-25T04:22:24.508Z,14.00
2019-03-25T04:24:54.511Z,14.00
2019-03-25T04:27:24.239Z,14.00
2019-03-25T04:29:57.307Z,14.00
2019-03-25T04:32:27.268Z,14.00
2019-03-25T04:34:57.078Z,14.00
2019-03-25T04:37:31.244Z,14.00
2019-03-25T04:40:01.131Z,14.00
2019-03-25T04:42:30.961Z,14.00
2019-03-25T04:45:00.906Z,14.00
2019-03-25T04:47:31.918Z,14.00
2019-03-25T04:50:01.745Z,14.00
2019-03-25T04:52:32.603Z,14.00
2019-03-25T04:55:02.595Z,14.00
2019-03-25T04:57:32.575Z,14.00
2019-03-25T05:00:02.398Z,14.00
2019-03-25T05:02:38.182Z,14.00
2019-03-25T05:05:19.079Z,14.00
2019-03-25T05:07:49.035Z,14.00
2019-03-25T05:10:18.882Z,14.00
2019-03-25T05:12:48.848Z,14.00
2019-03-25T05:15:19.106Z,14.00
2019-03-25T05:17:49.563Z,14.00
2019-03-25T05:20:25.118Z,14.00
2019-03-25T05:22:55.085Z,13.90
2019-03-25T05:25:24.858Z,13.90
2019-03-25T05:27:54.814Z,13.90
2019-03-25T05:30:24.815Z,13.90
2019-03-25T05:32:55.181Z,13.90
2019-03-25T05:35:25.116Z,13.90
2019-03-25T05:37:55.212Z,13.90
2019-03-25T05:40:31.200Z,13.90
2019-03-25T05:43:01.181Z,13.90
2019-03-25T05:45:31.047Z,13.90
2019-03-25T05:48:00.975Z,13.90
2019-03-25T05:50:30.876Z,13.90
2019-03-25T05:53:02.223Z,13.90
2019-03-25T05:55:32.172Z,13.90
2019-03-25T05:58:02.026Z,13.90
2019-03-25T06:00:34.400Z,13.90
2019-03-25T06:03:04.226Z,13.90
2019-03-25T06:05:34.226Z,13.90
2019-03-25T06:08:04.058Z,13.90
2019-03-25T06:10:37.236Z,13.90
2019-03-25T06:13:07.319Z,13.90
2019-03-25T06:15:37.095Z,13.90
2019-03-25T06:18:07.149Z,13.90
2019-03-25T06:20:37.994Z,13.90
2019-03-25T06:23:08.008Z,13.90
2019-03-25T06:25:37.871Z,13.90
2019-03-25T06:28:07.718Z,13.90
2019-03-25T06:30:37.656Z,13.90
2019-03-25T06:33:12.501Z,13.80
2019-03-25T06:35:43.194Z,13.80
2019-03-25T06:38:16.073Z,13.80
2019-03-25T06:40:45.922Z,13.80
2019-03-25T06:43:15.828Z,13.80
2019-03-25T06:45:45.801Z,13.80
2019-03-25T06:48:15.698Z,13.80
2019-03-25T06:50:45.631Z,13.80
2019-03-25T06:53:15.561Z,13.80
2019-03-25T06:55:49.055Z,13.80
2019-03-25T06:58:19.075Z,13.80
2019-03-25T07:00:48.962Z,13.80
2019-03-25T07:03:18.846Z,13.80
2019-03-25T07:05:48.807Z,13.80
2019-03-25T07:08:19.591Z,13.70
2019-03-25T07:10:55.207Z,13.80
2019-03-25T07:13:25.057Z,13.70
2019-03-25T07:15:54.928Z,13.70
2019-03-25T07:18:24.919Z,13.70
2019-03-25T07:20:54.808Z,13.70
2019-03-25T07:23:24.740Z,13.70
2019-03-25T07:26:01.163Z,13.70
2019-03-25T07:28:31.201Z,13.70
2019-03-25T07:31:00.969Z,13.70
2019-03-25T07:33:30.986Z,13.70
2019-03-25T07:36:00.858Z,13.70
2019-03-25T07:38:30.864Z,13.70
2019-03-25T07:41:07.250Z,13.60
2019-03-25T07:43:39.301Z,13.60
2019-03-25T07:46:25.232Z,13.60
2019-03-25T07:48:55.337Z,13.60
2019-03-25T07:51:25.362Z,13.60
2019-03-25T07:53:55.303Z,13.60
2019-03-25T07:56:25.176Z,13.60
2019-03-25T07:58:55.560Z,13.60
2019-03-25T08:01:26.285Z,13.60
2019-03-25T08:03:56.110Z,13.60
2019-03-25T08:06:44.529Z,13.60
2019-03-25T08:09:14.253Z,13.60
2019-03-25T08:11:43.715Z,13.60
2019-03-25T08:14:13.118Z,13.60
2019-03-25T08:16:42.705Z,13.60
2019-03-25T08:19:12.122Z,13.60
2019-03-25T08:21:41.678Z,13.60
2019-03-25T08:24:11.182Z,13.50
2019-03-25T08:26:42.856Z,13.50
2019-03-25T08:29:12.455Z,13.50
2019-03-25T08:31:42.294Z,13.50
2019-03-25T08:34:11.664Z,13.50
2019-03-25T08:36:41.227Z,13.50
2019-03-25T08:39:10.669Z,13.50
2019-03-25T08:41:40.073Z,13.50
2019-03-25T08:44:09.478Z,13.50
2019-03-25T08:46:39.189Z,13.50
2019-03-25T08:49:08.712Z,13.50
2019-03-25T08:51:43.519Z,13.50
2019-03-25T08:54:12.883Z,13.50
2019-03-25T08:56:42.509Z,13.50
2019-03-25T08:59:12.059Z,13.50
2019-03-25T09:01:41.619Z,13.50
2019-03-25T09:04:11.050Z,13.50
2019-03-25T09:06:40.631Z,13.50
2019-03-25T09:09:10.134Z,13.50
2019-03-25T09:11:39.557Z,13.50
2019-03-25T09:14:09.134Z,13.50
2019-03-25T09:16:38.588Z,13.50
2019-03-25T09:19:08.091Z,13.50
2019-03-25T09:21:37.574Z,13.50
2019-03-25T09:24:07.167Z,13.50
2019-03-25T09:26:37.009Z,13.50
2019-03-25T09:29:06.481Z,13.50
2019-03-25T09:31:36.901Z,13.50
2019-03-25T09:34:07.116Z,13.50
2019-03-25T09:36:36.647Z,13.50
2019-03-25T09:39:07.564Z,13.50
2019-03-25T09:41:37.306Z,13.50
2019-03-25T09:44:06.859Z,13.50
2019-03-25T09:46:36.313Z,13.50
2019-03-25T09:49:05.847Z,13.50
2019-03-25T09:51:35.318Z,13.40
2019-03-25T09:54:04.906Z,13.40
2019-03-25T09:56:34.418Z,13.40
2019-03-25T09:59:03.926Z,13.40
2019-03-25T10:01:33.742Z,13.40
2019-03-25T10:04:03.344Z,13.40
2019-03-25T10:06:32.754Z,13.40
2019-03-25T10:09:02.362Z,13.40
2019-03-25T10:11:31.855Z,13.40
2019-03-25T10:14:01.361Z,13.40
2019-03-25T10:16:30.853Z,13.40
2019-03-25T10:19:00.300Z,13.40
2019-03-25T10:21:29.863Z,13.40
2019-03-25T10:23:59.404Z,13.40
2019-03-25T10:26:28.798Z,13.40
2019-03-25T10:28:58.207Z,13.40
2019-03-25T10:31:27.817Z,13.40
2019-03-25T10:33:57.401Z,13.40
2019-03-25T10:36:27.029Z,13.40
2019-03-25T10:38:56.804Z,13.40
2019-03-25T10:41:26.407Z,13.40
2019-03-25T10:43:56.302Z,13.40
2019-03-25T10:46:25.666Z,13.40
2019-03-25T10:48:55.228Z,13.40
2019-03-25T10:51:24.755Z,13.40
2019-03-25T10:53:54.168Z,13.40
2019-03-25T10:56:23.774Z,13.40
2019-03-25T10:58:58.060Z,13.40
2019-03-25T11:01:25.322Z,13.40
2019-03-25T11:03:55.010Z,13.40
2019-03-25T11:06:24.374Z,13.40
2019-03-25T11:08:53.870Z,13.40
2019-03-25T11:11:23.586Z,13.40
2019-03-25T11:13:53.173Z,13.40
2019-03-25T11:16:22.738Z,13.40
2019-03-25T11:18:52.506Z,13.30
2019-03-25T11:21:22.106Z,13.40
2019-03-25T11:23:51.458Z,13.40
2019-03-25T11:26:21.613Z,13.40
2019-03-25T11:28:51.341Z,13.30
2019-03-25T11:31:20.694Z,13.40
2019-03-25T11:33:50.228Z,13.30
2019-03-25T11:36:19.862Z,13.40
2019-03-25T11:38:49.200Z,13.40
2019-03-25T11:41:18.919Z,13.40
2019-03-25T11:43:48.458Z,13.40
2019-03-25T11:46:17.884Z,13.40
2019-03-25T11:48:47.374Z,13.40
2019-03-25T11:51:16.874Z,13.40
2019-03-25T11:53:46.406Z,13.40
2019-03-25T11:56:15.902Z,13.40
2019-03-25T11:58:45.419Z,13.40
2019-03-25T12:01:14.902Z,13.40
2019-03-25T12:03:44.421Z,13.40
2019-03-25T12:06:13.926Z,13.40
2019-03-25T12:08:43.547Z,13.40
2019-03-25T12:11:13.427Z,13.40
2019-03-25T12:13:42.859Z,13.40
2019-03-25T12:16:12.378Z,13.40
2019-03-25T12:18:41.854Z,13.40
2019-03-25T12:21:11.359Z,13.40
2019-03-25T12:23:40.872Z,13.40
2019-03-25T12:26:10.452Z,13.40
2019-03-25T12:28:39.883Z,13.40
2019-03-25T12:31:09.461Z,13.30
2019-03-25T12:33:38.887Z,13.30
2019-03-25T12:36:08.466Z,13.30
2019-03-25T12:38:37.914Z,13.30
2019-03-25T12:41:07.470Z,13.30
2019-03-25T12:43:36.919Z,13.30
2019-03-25T12:46:06.423Z,13.30
2019-03-25T12:48:35.926Z,13.30
2019-03-25T12:51:05.509Z,13.30
2019-03-25T12:53:35.356Z,13.30
2019-03-25T12:56:04.699Z,13.30
2019-03-25T12:58:34.423Z,13.30
2019-03-25T13:01:06.872Z,13.30
2019-03-25T13:03:36.249Z,13.30
2019-03-25T13:06:05.602Z,13.30
2019-03-25T13:08:35.335Z,13.30
2019-03-25T13:11:05.308Z,13.30
2019-03-25T13:13:35.083Z,13.30
2019-03-25T13:16:04.775Z,13.30
2019-03-25T13:18:34.498Z,13.30
2019-03-25T13:21:04.069Z,13.30
2019-03-25T13:23:33.980Z,13.30
2019-03-25T13:26:03.897Z,13.30
2019-03-25T13:28:33.330Z,13.30
2019-03-25T13:31:02.898Z,13.30
2019-03-25T13:33:32.376Z,13.30
2019-03-25T13:36:01.821Z,13.30
2019-03-25T13:38:31.423Z,13.30
2019-03-25T13:41:00.925Z,13.30
2019-03-25T13:43:30.502Z,13.30
2019-03-25T13:46:05.328Z,13.30
2019-03-25T13:48:31.019Z,13.30
2019-03-25T13:51:00.510Z,13.30
2019-03-25T13:53:30.078Z,13.30
2019-03-25T13:55:59.519Z,13.30
2019-03-25T13:58:29.014Z,13.30
2019-03-25T14:00:58.588Z,13.30
2019-03-25T14:03:28.022Z,13.30
2019-03-25T14:05:57.520Z,13.30
2019-03-25T14:08:27.056Z,13.30
2019-03-25T14:10:56.403Z,13.30
2019-03-25T14:13:26.050Z,13.30
2019-03-25T14:15:55.669Z,13.30
2019-03-25T14:18:25.190Z,13.30
2019-03-25T14:20:54.566Z,13.30
2019-03-25T14:23:24.158Z,13.30
2019-03-25T14:25:53.739Z,13.30
2019-03-25T14:28:23.145Z,13.30
2019-03-25T14:30:52.588Z,13.30
2019-03-25T14:33:22.018Z,13.30
2019-03-25T14:35:51.599Z,13.30
2019-03-25T14:38:21.313Z,13.30
2019-03-25T14:40:51.099Z,13.30
2019-03-25T14:43:20.601Z,13.30
2019-03-25T14:45:50.094Z,13.30
2019-03-25T14:48:19.540Z,13.20
2019-03-25T14:50:49.157Z,13.20
2019-03-25T14:53:18.951Z,13.20
2019-03-25T14:55:48.581Z,13.20
2019-03-25T14:58:17.951Z,13.30
2019-03-25T15:00:48.370Z,13.30
2019-03-25T15:03:17.740Z,13.30
2019-03-25T15:05:47.090Z,13.30
2019-03-25T15:08:16.871Z,13.30
2019-03-25T15:10:53.636Z,13.30
2019-03-25T15:13:17.438Z,13.30
2019-03-25T15:15:46.887Z,13.30
2019-03-25T15:18:16.530Z,13.30
2019-03-25T15:20:45.966Z,13.30
2019-03-25T15:23:15.537Z,13.30
2019-03-25T15:25:45.050Z,13.30
2019-03-25T15:28:14.552Z,13.30
2019-03-25T15:30:44.002Z,13.30
2019-03-25T15:33:32.327Z,13.30
2019-03-25T15:36:01.679Z,13.30
2019-03-25T15:38:50.075Z,13.30
2019-03-25T15:41:19.697Z,13.30
2019-03-25T15:43:49.182Z,13.30
2019-03-25T15:46:18.545Z,13.30
2019-03-25T15:48:48.189Z,13.30
2019-03-25T15:51:17.519Z,13.30
2019-03-25T15:53:46.878Z,13.30
2019-03-25T15:56:16.299Z,13.30
2019-03-25T15:58:45.638Z,13.30
2019-03-25T16:01:15.180Z,13.30
2019-03-25T16:03:44.605Z,13.30
2019-03-25T16:06:14.314Z,13.30
2019-03-25T16:08:43.820Z,13.30
2019-03-25T16:11:13.229Z,13.30
2019-03-25T16:13:43.040Z,13.30
2019-03-25T16:16:12.642Z,13.30
2019-03-25T16:18:42.693Z,13.30
2019-03-25T16:21:12.166Z,13.30
2019-03-25T16:23:41.904Z,13.30
2019-03-25T16:26:11.605Z,13.30
2019-03-25T16:28:41.091Z,13.30
2019-03-25T16:31:10.672Z,13.30
2019-03-25T16:33:40.098Z,13.30
2019-03-25T16:36:09.456Z,13.30
2019-03-25T16:38:39.109Z,13.30
2019-03-25T16:41:08.707Z,13.30
2019-03-25T16:43:38.530Z,13.30
2019-03-25T16:46:07.975Z,13.30
2019-03-25T16:48:37.595Z,13.30
2019-03-25T16:51:07.060Z,13.30
2019-03-25T16:53:36.529Z,13.30
2019-03-25T16:56:06.179Z,13.30
2019-03-25T16:58:35.620Z,13.30
2019-03-25T17:01:09.904Z,13.30
2019-03-25T17:03:36.186Z,13.30
2019-03-25T17:06:05.523Z,13.30
2019-03-25T17:08:35.292Z,13.30
2019-03-25T17:11:04.760Z,13.30
2019-03-25T17:13:34.222Z,13.30
2019-03-25T17:16:03.575Z,13.30
2019-03-25T17:18:52.158Z,13.30
2019-03-25T17:21:22.048Z,13.30
2019-03-25T17:23:54.092Z,13.30
2019-03-25T17:26:24.026Z,13.30
2019-03-25T17:28:55.495Z,13.30
2019-03-25T17:31:25.554Z,13.30
2019-03-25T17:33:55.399Z,13.30
2019-03-25T17:36:25.289Z,13.30
2019-03-25T17:38:55.126Z,13.30
2019-03-25T17:41:25.079Z,13.30
2019-03-25T17:43:54.895Z,13.30
2019-03-25T17:46:31.689Z,13.30
2019-03-25T17:49:01.695Z,13.30
2019-03-25T17:51:37.661Z,13.30
2019-03-25T17:54:07.570Z,13.30
2019-03-25T17:56:40.288Z,13.30
2019-03-25T17:59:10.196Z,13.30
2019-03-25T18:01:40.190Z,13.30
2019-03-25T18:04:10.110Z,13.30
2019-03-25T18:06:39.952Z,13.30
2019-03-25T18:09:10.656Z,13.30
2019-03-25T18:11:43.599Z,13.30
2019-03-25T18:14:13.440Z,13.30
2019-03-25T18:16:49.788Z,13.30
2019-03-25T18:19:25.645Z,13.30
2019-03-25T18:21:55.705Z,13.30
2019-03-25T18:24:31.556Z,13.30
2019-03-25T18:27:02.935Z,13.30
2019-03-25T18:29:32.720Z,13.30
2019-03-25T18:32:02.638Z,13.30
2019-03-25T18:34:32.561Z,13.30
2019-03-25T18:37:07.688Z,13.30
2019-03-25T18:39:37.573Z,13.30
2019-03-25T18:42:09.890Z,13.30
2019-03-25T18:44:39.861Z,13.30
2019-03-25T18:47:09.666Z,13.30
2019-03-25T18:49:39.580Z,13.30
2019-03-25T18:52:09.559Z,13.20
2019-03-25T18:54:39.542Z,13.30
2019-03-25T18:57:09.418Z,13.20
2019-03-25T18:59:39.250Z,13.30
2019-03-25T19:02:19.741Z,13.30
2019-03-25T19:04:49.741Z,13.20
2019-03-25T19:07:19.817Z,13.30
2019-03-25T19:09:49.597Z,13.30
2019-03-25T19:12:19.639Z,13.20
2019-03-25T19:14:49.536Z,13.20
2019-03-25T19:17:25.623Z,13.20
2019-03-25T19:19:56.008Z,13.30
2019-03-25T19:22:25.966Z,13.20
2019-03-25T19:24:56.058Z,13.20
2019-03-25T19:27:26.466Z,13.20
2019-03-25T19:29:56.385Z,13.20
2019-03-25T19:32:31.620Z,13.20
2019-03-25T19:35:01.412Z,13.20
2019-03-25T19:37:37.688Z,13.20
2019-03-25T19:40:07.966Z,13.20
2019-03-25T19:42:37.888Z,13.20
2019-03-25T19:45:08.724Z,13.20
2019-03-25T19:47:38.639Z,13.20
2019-03-25T19:50:09.663Z,13.20
2019-03-25T19:52:39.574Z,13.20
2019-03-25T19:55:09.442Z,13.20
2019-03-25T19:57:43.675Z,13.20
2019-03-25T20:00:13.613Z,13.20
2019-03-25T20:02:43.740Z,13.20
2019-03-25T20:05:13.574Z,13.20
2019-03-25T20:07:43.725Z,13.20
2019-03-25T20:10:28.095Z,13.20
2019-03-25T20:12:58.772Z,13.20
2019-03-25T20:15:31.233Z,13.20
2019-03-25T20:18:00.151Z,13.20
2019-03-25T20:20:30.136Z,13.20
2019-03-25T20:22:59.995Z,13.20
2019-03-25T20:25:31.720Z,13.20
2019-03-25T20:28:01.673Z,13.20
2019-03-25T20:30:31.779Z,13.20
2019-03-25T20:33:01.588Z,13.20
2019-03-25T20:35:31.615Z,13.20
2019-03-25T20:38:01.582Z,13.20
2019-03-25T20:40:37.875Z,13.20
2019-03-25T20:43:07.614Z,13.20
2019-03-25T20:45:37.624Z,13.20
2019-03-25T20:48:08.352Z,13.20
2019-03-25T20:50:38.197Z,13.20
2019-03-25T20:53:08.119Z,13.20
2019-03-25T20:55:38.124Z,13.20
2019-03-25T20:58:08.105Z,13.20
2019-03-25T21:00:55.691Z,13.20
2019-03-25T21:03:25.693Z,13.20
2019-03-25T21:05:55.694Z,13.20
2019-03-25T21:08:25.859Z,13.20
2019-03-25T21:10:58.169Z,13.20
2019-03-25T21:13:28.262Z,13.20
2019-03-25T21:15:58.209Z,13.20
2019-03-25T21:18:28.000Z,13.20
2019-03-25T21:20:57.900Z,13.20
2019-03-25T21:23:27.985Z,13.20
2019-03-25T21:25:57.991Z,13.20
2019-03-25T21:28:27.985Z,13.20
2019-03-25T21:30:58.744Z,13.20
2019-03-25T21:33:28.855Z,13.20
2019-03-25T21:36:01.746Z,13.20
2019-03-25T21:38:31.583Z,13.20
2019-03-25T21:41:01.733Z,13.20
2019-03-25T21:43:31.741Z,13.20
2019-03-25T21:46:01.621Z,13.20
2019-03-25T21:48:31.491Z,13.20
2019-03-25T21:51:01.443Z,13.20
2019-03-25T21:53:31.283Z,13.20
2019-03-25T21:56:01.284Z,13.20
2019-03-25T21:58:31.824Z,13.20
2019-03-25T22:01:01.800Z,13.20
2019-03-25T22:03:31.589Z,13.10
2019-03-25T22:06:03.214Z,13.10
2019-03-25T22:08:37.847Z,13.10
2019-03-25T22:11:07.636Z,13.10
2019-03-25T22:13:37.609Z,13.10
2019-03-25T22:16:07.560Z,13.10
2019-03-25T22:18:44.820Z,13.10
2019-03-25T22:21:14.631Z,13.10
2019-03-25T22:23:44.684Z,13.10
2019-03-25T22:26:26.811Z,13.10
2019-03-25T22:28:56.660Z,13.10
2019-03-25T22:31:37.862Z,13.10
2019-03-25T22:34:07.965Z,13.10
2019-03-25T22:36:38.015Z,13.10
2019-03-25T22:39:08.593Z,13.10
2019-03-25T22:41:43.784Z,13.10
2019-03-25T22:44:14.062Z,13.10
2019-03-25T22:46:44.029Z,13.10
2019-03-25T22:49:13.913Z,13.10
2019-03-25T22:51:45.079Z,13.10
2019-03-25T22:54:14.920Z,13.10
2019-03-25T22:56:44.985Z,13.10
2019-03-25T22:59:19.723Z,13.10
2019-03-25T23:01:49.690Z,13.10
2019-03-25T23:04:19.695Z,13.10
2019-03-25T23:06:49.706Z,13.10
2019-03-25T23:09:19.631Z,13.10
2019-03-25T23:11:50.039Z,13.10
2019-03-25T23:14:20.011Z,13.10
2019-03-25T23:16:49.874Z,13.10
2019-03-25T23:19:42.759Z,13.10
2019-03-25T23:22:12.703Z,13.10
2019-03-25T23:24:42.662Z,13.10
2019-03-25T23:27:12.490Z,13.10
2019-03-25T23:29:42.564Z,13.10
2019-03-25T23:32:12.417Z,13.10
2019-03-25T23:34:42.077Z,13.10
2019-03-25T23:37:11.957Z,13.10
2019-03-25T23:39:41.909Z,13.10
2019-03-25T23:42:11.723Z,13.10
2019-03-25T23:44:47.580Z,13.10
2019-03-25T23:47:17.562Z,13.10
2019-03-25T23:49:47.520Z,13.10
2019-03-25T23:52:17.492Z,13.00
2019-03-25T23:54:47.499Z,13.10
2019-03-25T23:57:17.511Z,13.00
2019-03-25T23:59:49.825Z,13.00
